sensor_id;sensor_type;location;lat;lon;timestamp;P1;durP1;ratioP1;P2;durP2;ratioP2
7199;SDS011;3641;49.082;8.200;2023-12-20T00:01:09;20.92;;;13.23;;
7199;SDS011;3641;49.082;8.200;2023-12-20T00:03:36;22.30;;;12.30;;
7199;SDS011;3641;49.082;8.200;2023-12-20T00:06:02;22.13;;;13.00;;
7199;SDS011;3641;49.082;8.200;2023-12-20T00:08:29;24.42;;;13.25;;
7199;SDS011;3641;49.082;8.200;2023-12-20T00:10:57;21.40;;;12.88;;
7199;SDS011;3641;49.082;8.200;2023-12-20T00:13:23;21.50;;;12.82;;
7199;SDS011;3641;49.082;8.200;2023-12-20T00:15:50;24.00;;;13.30;;
7199;SDS011;3641;49.082;8.200;2023-12-20T00:18:16;24.60;;;13.68;;
7199;SDS011;3641;49.082;8.200;2023-12-20T00:20:42;22.52;;;12.02;;
7199;SDS011;3641;49.082;8.200;2023-12-20T00:23:09;20.85;;;12.43;;
7199;SDS011;3641;49.082;8.200;2023-12-20T00:25:35;22.00;;;13.07;;
7199;SDS011;3641;49.082;8.200;2023-12-20T00:28:03;23.95;;;13.07;;
7199;SDS011;3641;49.082;8.200;2023-12-20T00:30:30;22.90;;;12.52;;
7199;SDS011;3641;49.082;8.200;2023-12-20T00:32:56;23.02;;;13.05;;
7199;SDS011;3641;49.082;8.200;2023-12-20T00:35:22;21.95;;;12.88;;
7199;SDS011;3641;49.082;8.200;2023-12-20T00:37:49;21.80;;;12.80;;
7199;SDS011;3641;49.082;8.200;2023-12-20T00:40:15;20.00;;;12.57;;
7199;SDS011;3641;49.082;8.200;2023-12-20T00:42:42;20.25;;;12.25;;
7199;SDS011;3641;49.082;8.200;2023-12-20T00:45:10;17.20;;;10.57;;
7199;SDS011;3641;49.082;8.200;2023-12-20T00:47:36;20.60;;;11.02;;
7199;SDS011;3641;49.082;8.200;2023-12-20T00:50:02;21.30;;;12.25;;
7199;SDS011;3641;49.082;8.200;2023-12-20T00:52:29;19.90;;;11.48;;
7199;SDS011;3641;49.082;8.200;2023-12-20T00:54:56;18.08;;;10.98;;
7199;SDS011;3641;49.082;8.200;2023-12-20T00:57:22;20.70;;;10.90;;
7199;SDS011;3641;49.082;8.200;2023-12-20T00:59:48;17.20;;;9.90;;
7199;SDS011;3641;49.082;8.200;2023-12-20T01:02:16;18.55;;;10.85;;
7199;SDS011;3641;49.082;8.200;2023-12-20T01:04:43;18.35;;;10.50;;
7199;SDS011;3641;49.082;8.200;2023-12-20T01:07:09;16.92;;;9.88;;
7199;SDS011;3641;49.082;8.200;2023-12-20T01:09:35;15.48;;;9.32;;
7199;SDS011;3641;49.082;8.200;2023-12-20T01:12:02;18.77;;;10.30;;
7199;SDS011;3641;49.082;8.200;2023-12-20T01:14:28;20.45;;;10.20;;
7199;SDS011;3641;49.082;8.200;2023-12-20T01:16:55;15.48;;;8.98;;
7199;SDS011;3641;49.082;8.200;2023-12-20T01:19:23;15.68;;;9.27;;
7199;SDS011;3641;49.082;8.200;2023-12-20T01:21:52;15.57;;;9.40;;
7199;SDS011;3641;49.082;8.200;2023-12-20T01:24:18;15.18;;;8.90;;
7199;SDS011;3641;49.082;8.200;2023-12-20T01:26:44;18.33;;;9.57;;
7199;SDS011;3641;49.082;8.200;2023-12-20T01:29:11;15.50;;;8.88;;
7199;SDS011;3641;49.082;8.200;2023-12-20T01:31:39;17.30;;;9.93;;
7199;SDS011;3641;49.082;8.200;2023-12-20T01:34:05;16.92;;;9.43;;
7199;SDS011;3641;49.082;8.200;2023-12-20T01:36:33;13.98;;;8.93;;
7199;SDS011;3641;49.082;8.200;2023-12-20T01:38:59;15.18;;;9.05;;
7199;SDS011;3641;49.082;8.200;2023-12-20T01:41:26;16.45;;;8.70;;
7199;SDS011;3641;49.082;8.200;2023-12-20T01:43:52;15.82;;;9.88;;
7199;SDS011;3641;49.082;8.200;2023-12-20T01:46:19;15.77;;;9.25;;
7199;SDS011;3641;49.082;8.200;2023-12-20T01:48:46;17.20;;;10.02;;
7199;SDS011;3641;49.082;8.200;2023-12-20T01:51:13;14.52;;;8.77;;
7199;SDS011;3641;49.082;8.200;2023-12-20T01:53:41;14.55;;;8.45;;
7199;SDS011;3641;49.082;8.200;2023-12-20T01:56:08;16.83;;;9.98;;
7199;SDS011;3641;49.082;8.200;2023-12-20T01:58:36;16.40;;;9.60;;
7199;SDS011;3641;49.082;8.200;2023-12-20T02:01:05;15.48;;;8.52;;
7199;SDS011;3641;49.082;8.200;2023-12-20T02:03:31;13.90;;;8.23;;
7199;SDS011;3641;49.082;8.200;2023-12-20T02:05:58;14.80;;;8.00;;
7199;SDS011;3641;49.082;8.200;2023-12-20T02:08:24;16.58;;;8.88;;
7199;SDS011;3641;49.082;8.200;2023-12-20T02:10:52;17.70;;;8.65;;
7199;SDS011;3641;49.082;8.200;2023-12-20T02:13:18;15.13;;;8.85;;
7199;SDS011;3641;49.082;8.200;2023-12-20T02:15:45;14.27;;;8.50;;
7199;SDS011;3641;49.082;8.200;2023-12-20T02:18:11;14.48;;;8.43;;
7199;SDS011;3641;49.082;8.200;2023-12-20T02:20:40;14.70;;;8.40;;
7199;SDS011;3641;49.082;8.200;2023-12-20T02:23:08;13.95;;;8.30;;
7199;SDS011;3641;49.082;8.200;2023-12-20T02:25:34;14.85;;;8.50;;
7199;SDS011;3641;49.082;8.200;2023-12-20T02:28:01;14.18;;;7.72;;
7199;SDS011;3641;49.082;8.200;2023-12-20T02:30:28;13.77;;;8.57;;
7199;SDS011;3641;49.082;8.200;2023-12-20T02:32:54;13.50;;;7.80;;
7199;SDS011;3641;49.082;8.200;2023-12-20T02:35:21;14.23;;;7.93;;
7199;SDS011;3641;49.082;8.200;2023-12-20T02:37:47;12.20;;;7.40;;
7199;SDS011;3641;49.082;8.200;2023-12-20T02:40:15;14.25;;;8.48;;
7199;SDS011;3641;49.082;8.200;2023-12-20T02:42:41;14.55;;;8.45;;
7199;SDS011;3641;49.082;8.200;2023-12-20T02:45:08;16.17;;;8.55;;
7199;SDS011;3641;49.082;8.200;2023-12-20T02:47:34;13.77;;;7.88;;
7199;SDS011;3641;49.082;8.200;2023-12-20T02:50:01;13.68;;;7.97;;
7199;SDS011;3641;49.082;8.200;2023-12-20T02:52:28;14.85;;;8.05;;
7199;SDS011;3641;49.082;8.200;2023-12-20T02:54:55;12.80;;;7.57;;
7199;SDS011;3641;49.082;8.200;2023-12-20T02:57:22;14.00;;;7.72;;
7199;SDS011;3641;49.082;8.200;2023-12-20T02:59:49;12.73;;;7.28;;
7199;SDS011;3641;49.082;8.200;2023-12-20T03:02:15;11.65;;;6.95;;
7199;SDS011;3641;49.082;8.200;2023-12-20T03:04:41;13.98;;;7.40;;
7199;SDS011;3641;49.082;8.200;2023-12-20T03:07:08;13.05;;;7.40;;
7199;SDS011;3641;49.082;8.200;2023-12-20T03:09:34;11.38;;;6.90;;
7199;SDS011;3641;49.082;8.200;2023-12-20T03:12:01;12.10;;;6.65;;
7199;SDS011;3641;49.082;8.200;2023-12-20T03:14:28;14.18;;;7.43;;
7199;SDS011;3641;49.082;8.200;2023-12-20T03:16:55;11.55;;;6.43;;
7199;SDS011;3641;49.082;8.200;2023-12-20T03:19:21;11.70;;;6.97;;
7199;SDS011;3641;49.082;8.200;2023-12-20T03:21:48;11.70;;;7.03;;
7199;SDS011;3641;49.082;8.200;2023-12-20T03:24:14;11.82;;;6.65;;
7199;SDS011;3641;49.082;8.200;2023-12-20T03:26:41;12.48;;;7.03;;
7199;SDS011;3641;49.082;8.200;2023-12-20T03:29:07;11.25;;;6.55;;
7199;SDS011;3641;49.082;8.200;2023-12-20T03:31:35;11.50;;;6.90;;
7199;SDS011;3641;49.082;8.200;2023-12-20T03:34:01;10.77;;;6.18;;
7199;SDS011;3641;49.082;8.200;2023-12-20T03:36:27;12.50;;;6.40;;
7199;SDS011;3641;49.082;8.200;2023-12-20T03:38:54;10.85;;;6.25;;
7199;SDS011;3641;49.082;8.200;2023-12-20T03:41:20;10.48;;;5.88;;
7199;SDS011;3641;49.082;8.200;2023-12-20T03:43:47;13.13;;;6.72;;
7199;SDS011;3641;49.082;8.200;2023-12-20T03:46:13;10.70;;;6.20;;
7199;SDS011;3641;49.082;8.200;2023-12-20T03:48:41;10.63;;;6.07;;
7199;SDS011;3641;49.082;8.200;2023-12-20T03:51:07;10.10;;;5.72;;
7199;SDS011;3641;49.082;8.200;2023-12-20T03:53:33;12.10;;;6.47;;
7199;SDS011;3641;49.082;8.200;2023-12-20T03:56:00;10.05;;;5.95;;
7199;SDS011;3641;49.082;8.200;2023-12-20T03:58:26;10.13;;;5.65;;
7199;SDS011;3641;49.082;8.200;2023-12-20T04:00:53;10.85;;;5.90;;
7199;SDS011;3641;49.082;8.200;2023-12-20T04:03:19;9.65;;;5.65;;
7199;SDS011;3641;49.082;8.200;2023-12-20T04:05:47;10.57;;;5.63;;
7199;SDS011;3641;49.082;8.200;2023-12-20T04:08:13;11.38;;;5.78;;
7199;SDS011;3641;49.082;8.200;2023-12-20T04:10:40;10.23;;;5.75;;
7199;SDS011;3641;49.082;8.200;2023-12-20T04:13:06;11.45;;;5.78;;
7199;SDS011;3641;49.082;8.200;2023-12-20T04:15:32;10.23;;;6.13;;
7199;SDS011;3641;49.082;8.200;2023-12-20T04:17:59;11.35;;;5.80;;
7199;SDS011;3641;49.082;8.200;2023-12-20T04:20:26;10.55;;;6.05;;
7199;SDS011;3641;49.082;8.200;2023-12-20T04:22:53;10.05;;;5.72;;
7199;SDS011;3641;49.082;8.200;2023-12-20T04:25:20;10.52;;;5.85;;
7199;SDS011;3641;49.082;8.200;2023-12-20T04:27:46;8.07;;;4.43;;
7199;SDS011;3641;49.082;8.200;2023-12-20T04:30:13;8.18;;;3.35;;
7199;SDS011;3641;49.082;8.200;2023-12-20T04:32:39;5.45;;;2.90;;
7199;SDS011;3641;49.082;8.200;2023-12-20T04:35:06;7.10;;;2.80;;
7199;SDS011;3641;49.082;8.200;2023-12-20T04:37:33;6.20;;;3.03;;
7199;SDS011;3641;49.082;8.200;2023-12-20T04:40:01;5.20;;;2.67;;
7199;SDS011;3641;49.082;8.200;2023-12-20T04:42:28;4.78;;;2.95;;
7199;SDS011;3641;49.082;8.200;2023-12-20T04:44:54;4.32;;;2.33;;
7199;SDS011;3641;49.082;8.200;2023-12-20T04:47:21;5.00;;;2.53;;
7199;SDS011;3641;49.082;8.200;2023-12-20T04:49:47;4.40;;;2.55;;
7199;SDS011;3641;49.082;8.200;2023-12-20T04:52:14;3.83;;;2.63;;
7199;SDS011;3641;49.082;8.200;2023-12-20T04:54:40;5.13;;;2.50;;
7199;SDS011;3641;49.082;8.200;2023-12-20T04:57:08;5.25;;;2.72;;
7199;SDS011;3641;49.082;8.200;2023-12-20T04:59:34;4.28;;;2.47;;
7199;SDS011;3641;49.082;8.200;2023-12-20T05:02:02;5.25;;;2.63;;
7199;SDS011;3641;49.082;8.200;2023-12-20T05:04:28;4.97;;;2.78;;
7199;SDS011;3641;49.082;8.200;2023-12-20T05:06:55;3.97;;;2.60;;
7199;SDS011;3641;49.082;8.200;2023-12-20T05:09:21;3.78;;;2.22;;
7199;SDS011;3641;49.082;8.200;2023-12-20T05:11:48;5.97;;;2.53;;
7199;SDS011;3641;49.082;8.200;2023-12-20T05:14:15;4.88;;;2.90;;
7199;SDS011;3641;49.082;8.200;2023-12-20T05:16:42;4.90;;;2.83;;
7199;SDS011;3641;49.082;8.200;2023-12-20T05:19:08;5.30;;;3.10;;
7199;SDS011;3641;49.082;8.200;2023-12-20T05:21:34;4.45;;;2.47;;
7199;SDS011;3641;49.082;8.200;2023-12-20T05:24:01;4.80;;;2.65;;
7199;SDS011;3641;49.082;8.200;2023-12-20T05:26:28;5.35;;;3.35;;
7199;SDS011;3641;49.082;8.200;2023-12-20T05:28:55;6.13;;;2.60;;
7199;SDS011;3641;49.082;8.200;2023-12-20T05:31:23;6.45;;;3.33;;
7199;SDS011;3641;49.082;8.200;2023-12-20T05:33:49;6.93;;;3.00;;
7199;SDS011;3641;49.082;8.200;2023-12-20T05:36:16;4.70;;;2.70;;
7199;SDS011;3641;49.082;8.200;2023-12-20T05:38:42;4.97;;;2.60;;
7199;SDS011;3641;49.082;8.200;2023-12-20T05:41:08;4.07;;;2.70;;
7199;SDS011;3641;49.082;8.200;2023-12-20T05:43:35;6.68;;;2.47;;
7199;SDS011;3641;49.082;8.200;2023-12-20T05:46:01;7.07;;;2.58;;
7199;SDS011;3641;49.082;8.200;2023-12-20T05:48:29;4.28;;;2.70;;
7199;SDS011;3641;49.082;8.200;2023-12-20T05:50:55;5.22;;;3.33;;
7199;SDS011;3641;49.082;8.200;2023-12-20T05:53:22;5.35;;;2.92;;
7199;SDS011;3641;49.082;8.200;2023-12-20T05:55:49;5.45;;;2.83;;
7199;SDS011;3641;49.082;8.200;2023-12-20T05:58:15;4.78;;;2.90;;
7199;SDS011;3641;49.082;8.200;2023-12-20T06:00:41;5.30;;;3.20;;
7199;SDS011;3641;49.082;8.200;2023-12-20T06:03:08;4.18;;;2.72;;
7199;SDS011;3641;49.082;8.200;2023-12-20T06:05:35;5.25;;;3.10;;
7199;SDS011;3641;49.082;8.200;2023-12-20T06:08:02;4.80;;;2.88;;
7199;SDS011;3641;49.082;8.200;2023-12-20T06:10:29;3.53;;;2.58;;
7199;SDS011;3641;49.082;8.200;2023-12-20T06:12:55;4.57;;;2.63;;
7199;SDS011;3641;49.082;8.200;2023-12-20T06:15:23;4.75;;;2.70;;
7199;SDS011;3641;49.082;8.200;2023-12-20T06:17:50;4.78;;;2.70;;
7199;SDS011;3641;49.082;8.200;2023-12-20T06:20:16;4.70;;;3.00;;
7199;SDS011;3641;49.082;8.200;2023-12-20T06:22:44;4.22;;;2.65;;
7199;SDS011;3641;49.082;8.200;2023-12-20T06:25:10;4.63;;;3.00;;
7199;SDS011;3641;49.082;8.200;2023-12-20T06:27:37;4.45;;;3.10;;
7199;SDS011;3641;49.082;8.200;2023-12-20T06:30:04;6.47;;;3.80;;
7199;SDS011;3641;49.082;8.200;2023-12-20T06:32:31;5.90;;;3.40;;
7199;SDS011;3641;49.082;8.200;2023-12-20T06:34:57;6.70;;;4.38;;
7199;SDS011;3641;49.082;8.200;2023-12-20T06:37:23;6.25;;;3.95;;
7199;SDS011;3641;49.082;8.200;2023-12-20T06:39:51;7.78;;;4.03;;
7199;SDS011;3641;49.082;8.200;2023-12-20T06:42:18;8.00;;;4.07;;
7199;SDS011;3641;49.082;8.200;2023-12-20T06:44:44;7.32;;;4.00;;
7199;SDS011;3641;49.082;8.200;2023-12-20T06:47:10;5.65;;;3.75;;
7199;SDS011;3641;49.082;8.200;2023-12-20T06:49:39;5.43;;;3.70;;
7199;SDS011;3641;49.082;8.200;2023-12-20T06:52:05;5.07;;;3.33;;
7199;SDS011;3641;49.082;8.200;2023-12-20T06:54:32;8.20;;;3.38;;
7199;SDS011;3641;49.082;8.200;2023-12-20T06:57:00;4.47;;;2.58;;
7199;SDS011;3641;49.082;8.200;2023-12-20T06:59:28;6.20;;;3.10;;
7199;SDS011;3641;49.082;8.200;2023-12-20T07:01:54;6.78;;;3.10;;
7199;SDS011;3641;49.082;8.200;2023-12-20T07:04:21;5.05;;;3.25;;
7199;SDS011;3641;49.082;8.200;2023-12-20T07:06:47;5.72;;;3.20;;
7199;SDS011;3641;49.082;8.200;2023-12-20T07:09:16;7.55;;;3.35;;
7199;SDS011;3641;49.082;8.200;2023-12-20T07:11:42;7.20;;;3.20;;
7199;SDS011;3641;49.082;8.200;2023-12-20T07:14:10;9.25;;;5.15;;
7199;SDS011;3641;49.082;8.200;2023-12-20T07:16:36;9.93;;;5.05;;
7199;SDS011;3641;49.082;8.200;2023-12-20T07:19:03;8.70;;;5.40;;
7199;SDS011;3641;49.082;8.200;2023-12-20T07:21:29;9.35;;;5.57;;
7199;SDS011;3641;49.082;8.200;2023-12-20T07:23:56;9.68;;;5.97;;
7199;SDS011;3641;49.082;8.200;2023-12-20T07:26:21;12.85;;;7.88;;
7199;SDS011;3641;49.082;8.200;2023-12-20T07:28:51;12.20;;;7.25;;
7199;SDS011;3641;49.082;8.200;2023-12-20T07:31:19;10.88;;;6.95;;
7199;SDS011;3641;49.082;8.200;2023-12-20T07:33:45;7.82;;;4.72;;
7199;SDS011;3641;49.082;8.200;2023-12-20T07:36:12;9.93;;;5.65;;
7199;SDS011;3641;49.082;8.200;2023-12-20T07:38:38;8.50;;;4.97;;
7199;SDS011;3641;49.082;8.200;2023-12-20T07:41:08;8.27;;;5.05;;
7199;SDS011;3641;49.082;8.200;2023-12-20T07:43:35;7.53;;;4.57;;
7199;SDS011;3641;49.082;8.200;2023-12-20T07:46:04;7.32;;;4.40;;
7199;SDS011;3641;49.082;8.200;2023-12-20T07:48:32;7.95;;;4.70;;
7199;SDS011;3641;49.082;8.200;2023-12-20T07:50:59;8.35;;;5.25;;
7199;SDS011;3641;49.082;8.200;2023-12-20T07:53:26;9.40;;;4.60;;
7199;SDS011;3641;49.082;8.200;2023-12-20T07:55:52;8.02;;;4.65;;
7199;SDS011;3641;49.082;8.200;2023-12-20T07:58:18;8.50;;;4.72;;
7199;SDS011;3641;49.082;8.200;2023-12-20T08:00:45;6.20;;;4.05;;
7199;SDS011;3641;49.082;8.200;2023-12-20T08:03:11;6.57;;;4.03;;
7199;SDS011;3641;49.082;8.200;2023-12-20T08:05:39;8.30;;;4.47;;
7199;SDS011;3641;49.082;8.200;2023-12-20T08:08:06;7.65;;;3.78;;
7199;SDS011;3641;49.082;8.200;2023-12-20T08:10:32;9.88;;;4.22;;
7199;SDS011;3641;49.082;8.200;2023-12-20T08:12:59;7.07;;;3.47;;
7199;SDS011;3641;49.082;8.200;2023-12-20T08:15:25;7.90;;;3.88;;
7199;SDS011;3641;49.082;8.200;2023-12-20T08:17:52;11.50;;;3.55;;
7199;SDS011;3641;49.082;8.200;2023-12-20T08:20:18;7.20;;;3.10;;
7199;SDS011;3641;49.082;8.200;2023-12-20T08:22:46;6.07;;;3.00;;
7199;SDS011;3641;49.082;8.200;2023-12-20T08:25:12;6.53;;;3.20;;
7199;SDS011;3641;49.082;8.200;2023-12-20T08:27:40;6.68;;;2.95;;
7199;SDS011;3641;49.082;8.200;2023-12-20T08:30:08;5.30;;;2.72;;
7199;SDS011;3641;49.082;8.200;2023-12-20T08:32:35;7.60;;;2.28;;
7199;SDS011;3641;49.082;8.200;2023-12-20T08:35:01;5.88;;;3.08;;
7199;SDS011;3641;49.082;8.200;2023-12-20T08:37:28;6.43;;;2.42;;
7199;SDS011;3641;49.082;8.200;2023-12-20T08:39:57;6.90;;;2.42;;
7199;SDS011;3641;49.082;8.200;2023-12-20T08:42:23;5.93;;;2.53;;
7199;SDS011;3641;49.082;8.200;2023-12-20T08:44:55;9.43;;;2.20;;
7199;SDS011;3641;49.082;8.200;2023-12-20T08:47:22;4.35;;;2.20;;
7199;SDS011;3641;49.082;8.200;2023-12-20T08:49:48;6.30;;;1.95;;
7199;SDS011;3641;49.082;8.200;2023-12-20T08:52:15;6.25;;;2.33;;
7199;SDS011;3641;49.082;8.200;2023-12-20T08:54:41;7.32;;;2.22;;
7199;SDS011;3641;49.082;8.200;2023-12-20T08:57:09;7.22;;;1.85;;
7199;SDS011;3641;49.082;8.200;2023-12-20T08:59:35;7.20;;;2.63;;
7199;SDS011;3641;49.082;8.200;2023-12-20T09:02:01;6.35;;;2.55;;
7199;SDS011;3641;49.082;8.200;2023-12-20T09:04:28;7.68;;;2.30;;
7199;SDS011;3641;49.082;8.200;2023-12-20T09:06:54;9.13;;;2.30;;
7199;SDS011;3641;49.082;8.200;2023-12-20T09:09:21;6.75;;;1.88;;
7199;SDS011;3641;49.082;8.200;2023-12-20T09:11:47;8.68;;;2.30;;
7199;SDS011;3641;49.082;8.200;2023-12-20T09:14:17;8.05;;;2.10;;
7199;SDS011;3641;49.082;8.200;2023-12-20T09:16:44;8.90;;;2.17;;
7199;SDS011;3641;49.082;8.200;2023-12-20T09:19:10;6.25;;;2.28;;
7199;SDS011;3641;49.082;8.200;2023-12-20T09:21:36;8.82;;;2.05;;
7199;SDS011;3641;49.082;8.200;2023-12-20T09:24:03;8.13;;;2.08;;
7199;SDS011;3641;49.082;8.200;2023-12-20T09:26:29;8.55;;;2.03;;
7199;SDS011;3641;49.082;8.200;2023-12-20T09:28:56;6.95;;;2.03;;
7199;SDS011;3641;49.082;8.200;2023-12-20T09:31:24;9.13;;;2.05;;
7199;SDS011;3641;49.082;8.200;2023-12-20T09:33:50;6.00;;;2.10;;
7199;SDS011;3641;49.082;8.200;2023-12-20T09:36:16;7.72;;;2.30;;
7199;SDS011;3641;49.082;8.200;2023-12-20T09:38:43;4.13;;;2.22;;
7199;SDS011;3641;49.082;8.200;2023-12-20T09:41:09;6.80;;;2.03;;
7199;SDS011;3641;49.082;8.200;2023-12-20T09:43:37;7.95;;;2.53;;
7199;SDS011;3641;49.082;8.200;2023-12-20T09:46:05;6.50;;;1.98;;
7199;SDS011;3641;49.082;8.200;2023-12-20T09:48:34;9.88;;;2.53;;
7199;SDS011;3641;49.082;8.200;2023-12-20T09:51:02;6.78;;;2.40;;
7199;SDS011;3641;49.082;8.200;2023-12-20T09:53:29;6.53;;;2.10;;
7199;SDS011;3641;49.082;8.200;2023-12-20T09:55:59;9.95;;;2.85;;
7199;SDS011;3641;49.082;8.200;2023-12-20T09:58:26;8.73;;;2.30;;
7199;SDS011;3641;49.082;8.200;2023-12-20T10:00:52;12.30;;;3.17;;
7199;SDS011;3641;49.082;8.200;2023-12-20T10:03:22;8.68;;;2.25;;
7199;SDS011;3641;49.082;8.200;2023-12-20T10:05:53;6.88;;;2.85;;
7199;SDS011;3641;49.082;8.200;2023-12-20T10:08:22;10.93;;;2.88;;
7199;SDS011;3641;49.082;8.200;2023-12-20T10:10:50;9.30;;;3.22;;
7199;SDS011;3641;49.082;8.200;2023-12-20T10:13:16;9.82;;;2.75;;
7199;SDS011;3641;49.082;8.200;2023-12-20T10:15:43;10.65;;;2.80;;
7199;SDS011;3641;49.082;8.200;2023-12-20T10:18:09;9.05;;;2.75;;
7199;SDS011;3641;49.082;8.200;2023-12-20T10:20:39;8.68;;;3.35;;
7199;SDS011;3641;49.082;8.200;2023-12-20T10:23:08;7.70;;;2.67;;
7199;SDS011;3641;49.082;8.200;2023-12-20T10:25:35;9.95;;;3.08;;
7199;SDS011;3641;49.082;8.200;2023-12-20T10:28:11;9.93;;;3.08;;
7199;SDS011;3641;49.082;8.200;2023-12-20T10:30:39;8.77;;;3.17;;
7199;SDS011;3641;49.082;8.200;2023-12-20T10:33:06;7.13;;;3.00;;
7199;SDS011;3641;49.082;8.200;2023-12-20T10:35:33;10.43;;;2.90;;
7199;SDS011;3641;49.082;8.200;2023-12-20T10:38:00;9.38;;;3.08;;
7199;SDS011;3641;49.082;8.200;2023-12-20T10:40:30;10.18;;;2.90;;
7199;SDS011;3641;49.082;8.200;2023-12-20T10:42:57;9.45;;;3.00;;
7199;SDS011;3641;49.082;8.200;2023-12-20T10:45:26;7.80;;;2.70;;
7199;SDS011;3641;49.082;8.200;2023-12-20T10:47:52;7.80;;;2.80;;
7199;SDS011;3641;49.082;8.200;2023-12-20T10:50:19;7.05;;;2.60;;
7199;SDS011;3641;49.082;8.200;2023-12-20T10:52:46;12.32;;;2.70;;
7199;SDS011;3641;49.082;8.200;2023-12-20T10:55:13;10.38;;;2.55;;
7199;SDS011;3641;49.082;8.200;2023-12-20T10:57:41;7.20;;;2.38;;
7199;SDS011;3641;49.082;8.200;2023-12-20T11:00:10;7.45;;;2.17;;
7199;SDS011;3641;49.082;8.200;2023-12-20T11:02:41;8.60;;;3.53;;
7199;SDS011;3641;49.082;8.200;2023-12-20T11:05:10;9.73;;;2.78;;
7199;SDS011;3641;49.082;8.200;2023-12-20T11:07:46;8.88;;;2.50;;
7199;SDS011;3641;49.082;8.200;2023-12-20T11:10:17;12.80;;;2.72;;
7199;SDS011;3641;49.082;8.200;2023-12-20T11:12:48;11.10;;;2.53;;
7199;SDS011;3641;49.082;8.200;2023-12-20T11:15:19;7.30;;;2.67;;
7199;SDS011;3641;49.082;8.200;2023-12-20T11:17:51;10.45;;;2.55;;
7199;SDS011;3641;49.082;8.200;2023-12-20T11:20:20;7.90;;;2.55;;
7199;SDS011;3641;49.082;8.200;2023-12-20T11:22:52;9.10;;;2.67;;
7199;SDS011;3641;49.082;8.200;2023-12-20T11:25:20;10.55;;;2.63;;
7199;SDS011;3641;49.082;8.200;2023-12-20T11:30:41;7.90;;;2.60;;
7199;SDS011;3641;49.082;8.200;2023-12-20T11:33:09;11.10;;;3.47;;
7199;SDS011;3641;49.082;8.200;2023-12-20T11:35:35;12.07;;;3.10;;
7199;SDS011;3641;49.082;8.200;2023-12-20T11:38:03;10.90;;;3.55;;
7199;SDS011;3641;49.082;8.200;2023-12-20T11:40:30;13.75;;;3.03;;
7199;SDS011;3641;49.082;8.200;2023-12-20T11:43:00;11.93;;;3.10;;
7199;SDS011;3641;49.082;8.200;2023-12-20T11:45:28;12.88;;;3.60;;
7199;SDS011;3641;49.082;8.200;2023-12-20T11:47:55;10.48;;;3.53;;
7199;SDS011;3641;49.082;8.200;2023-12-20T11:50:23;9.88;;;3.25;;
7199;SDS011;3641;49.082;8.200;2023-12-20T11:52:51;10.05;;;3.00;;
7199;SDS011;3641;49.082;8.200;2023-12-20T11:55:18;10.65;;;3.47;;
7199;SDS011;3641;49.082;8.200;2023-12-20T11:57:45;9.50;;;3.58;;
7199;SDS011;3641;49.082;8.200;2023-12-20T12:00:12;11.90;;;3.10;;
7199;SDS011;3641;49.082;8.200;2023-12-20T12:02:41;11.10;;;3.70;;
7199;SDS011;3641;49.082;8.200;2023-12-20T12:05:07;11.35;;;3.28;;
7199;SDS011;3641;49.082;8.200;2023-12-20T12:07:34;11.38;;;3.15;;
7199;SDS011;3641;49.082;8.200;2023-12-20T12:10:01;9.50;;;3.17;;
7199;SDS011;3641;49.082;8.200;2023-12-20T12:12:28;11.43;;;3.35;;
7199;SDS011;3641;49.082;8.200;2023-12-20T12:14:56;13.35;;;3.10;;
7199;SDS011;3641;49.082;8.200;2023-12-20T12:17:22;12.60;;;3.10;;
7199;SDS011;3641;49.082;8.200;2023-12-20T12:19:51;7.53;;;2.65;;
7199;SDS011;3641;49.082;8.200;2023-12-20T12:22:29;10.75;;;3.25;;
7199;SDS011;3641;49.082;8.200;2023-12-20T12:24:58;18.08;;;4.13;;
7199;SDS011;3641;49.082;8.200;2023-12-20T12:27:26;12.35;;;3.30;;
7199;SDS011;3641;49.082;8.200;2023-12-20T12:30:00;12.48;;;3.58;;
7199;SDS011;3641;49.082;8.200;2023-12-20T12:32:27;12.65;;;3.17;;
7199;SDS011;3641;49.082;8.200;2023-12-20T12:34:55;9.80;;;3.10;;
7199;SDS011;3641;49.082;8.200;2023-12-20T12:37:22;12.18;;;3.25;;
7199;SDS011;3641;49.082;8.200;2023-12-20T12:39:49;9.30;;;2.78;;
7199;SDS011;3641;49.082;8.200;2023-12-20T12:42:15;11.45;;;3.55;;
7199;SDS011;3641;49.082;8.200;2023-12-20T12:44:42;8.02;;;2.67;;
7199;SDS011;3641;49.082;8.200;2023-12-20T12:47:08;9.38;;;2.90;;
7199;SDS011;3641;49.082;8.200;2023-12-20T12:49:35;14.65;;;3.28;;
7199;SDS011;3641;49.082;8.200;2023-12-20T12:52:03;10.15;;;2.60;;
7199;SDS011;3641;49.082;8.200;2023-12-20T12:54:30;14.77;;;2.78;;
7199;SDS011;3641;49.082;8.200;2023-12-20T12:56:56;12.27;;;3.38;;
7199;SDS011;3641;49.082;8.200;2023-12-20T12:59:23;12.07;;;3.47;;
7199;SDS011;3641;49.082;8.200;2023-12-20T13:01:49;14.65;;;3.97;;
7199;SDS011;3641;49.082;8.200;2023-12-20T13:04:16;10.38;;;3.72;;
7199;SDS011;3641;49.082;8.200;2023-12-20T13:06:42;12.55;;;3.03;;
7199;SDS011;3641;49.082;8.200;2023-12-20T13:09:10;12.23;;;3.35;;
7199;SDS011;3641;49.082;8.200;2023-12-20T13:11:36;13.82;;;3.70;;
7199;SDS011;3641;49.082;8.200;2023-12-20T13:14:03;16.27;;;3.25;;
7199;SDS011;3641;49.082;8.200;2023-12-20T13:16:29;9.00;;;2.80;;
7199;SDS011;3641;49.082;8.200;2023-12-20T13:18:56;13.25;;;3.33;;
7199;SDS011;3641;49.082;8.200;2023-12-20T13:21:24;9.38;;;2.88;;
7199;SDS011;3641;49.082;8.200;2023-12-20T13:23:50;13.50;;;3.08;;
7199;SDS011;3641;49.082;8.200;2023-12-20T13:26:18;11.82;;;3.33;;
7199;SDS011;3641;49.082;8.200;2023-12-20T13:28:44;9.63;;;2.85;;
7199;SDS011;3641;49.082;8.200;2023-12-20T13:31:11;6.55;;;2.13;;
7199;SDS011;3641;49.082;8.200;2023-12-20T13:33:37;11.27;;;3.30;;
7199;SDS011;3641;49.082;8.200;2023-12-20T13:36:04;8.93;;;2.60;;
7199;SDS011;3641;49.082;8.200;2023-12-20T13:38:31;7.75;;;2.70;;
7199;SDS011;3641;49.082;8.200;2023-12-20T13:40:58;11.40;;;3.05;;
7199;SDS011;3641;49.082;8.200;2023-12-20T13:43:26;8.80;;;2.60;;
7199;SDS011;3641;49.082;8.200;2023-12-20T13:45:52;10.63;;;2.78;;
7199;SDS011;3641;49.082;8.200;2023-12-20T13:48:18;11.93;;;3.30;;
7199;SDS011;3641;49.082;8.200;2023-12-20T13:50:45;13.13;;;2.83;;
7199;SDS011;3641;49.082;8.200;2023-12-20T13:53:11;12.23;;;3.30;;
7199;SDS011;3641;49.082;8.200;2023-12-20T13:55:38;12.13;;;3.15;;
7199;SDS011;3641;49.082;8.200;2023-12-20T13:58:07;14.73;;;2.88;;
7199;SDS011;3641;49.082;8.200;2023-12-20T14:00:37;15.00;;;4.70;;
7199;SDS011;3641;49.082;8.200;2023-12-20T14:03:04;13.30;;;3.78;;
7199;SDS011;3641;49.082;8.200;2023-12-20T14:05:31;11.57;;;3.15;;
7199;SDS011;3641;49.082;8.200;2023-12-20T14:07:58;14.48;;;3.92;;
7199;SDS011;3641;49.082;8.200;2023-12-20T14:10:25;16.13;;;4.32;;
7199;SDS011;3641;49.082;8.200;2023-12-20T14:12:52;18.00;;;3.33;;
7199;SDS011;3641;49.082;8.200;2023-12-20T14:15:22;10.27;;;3.47;;
7199;SDS011;3641;49.082;8.200;2023-12-20T14:17:51;14.98;;;3.33;;
7199;SDS011;3641;49.082;8.200;2023-12-20T14:20:20;11.90;;;2.75;;
7199;SDS011;3641;49.082;8.200;2023-12-20T14:22:47;14.00;;;3.10;;
7199;SDS011;3641;49.082;8.200;2023-12-20T14:25:16;10.07;;;3.00;;
7199;SDS011;3641;49.082;8.200;2023-12-20T14:27:48;11.63;;;2.83;;
7199;SDS011;3641;49.082;8.200;2023-12-20T14:30:17;11.65;;;3.25;;
7199;SDS011;3641;49.082;8.200;2023-12-20T14:32:44;13.18;;;3.25;;
7199;SDS011;3641;49.082;8.200;2023-12-20T14:35:19;12.48;;;2.85;;
7199;SDS011;3641;49.082;8.200;2023-12-20T14:37:52;13.77;;;2.90;;
7199;SDS011;3641;49.082;8.200;2023-12-20T14:40:21;10.55;;;2.80;;
7199;SDS011;3641;49.082;8.200;2023-12-20T14:42:49;13.77;;;2.78;;
7199;SDS011;3641;49.082;8.200;2023-12-20T14:45:21;11.50;;;2.42;;
7199;SDS011;3641;49.082;8.200;2023-12-20T14:47:49;11.40;;;2.95;;
7199;SDS011;3641;49.082;8.200;2023-12-20T14:50:23;14.68;;;3.78;;
7199;SDS011;3641;49.082;8.200;2023-12-20T14:52:53;10.02;;;3.05;;
7199;SDS011;3641;49.082;8.200;2023-12-20T14:55:20;14.75;;;2.80;;
7199;SDS011;3641;49.082;8.200;2023-12-20T14:57:47;10.38;;;2.65;;
7199;SDS011;3641;49.082;8.200;2023-12-20T15:00:17;10.05;;;2.58;;
7199;SDS011;3641;49.082;8.200;2023-12-20T15:02:46;15.38;;;2.80;;
7199;SDS011;3641;49.082;8.200;2023-12-20T15:05:13;12.68;;;2.78;;
7199;SDS011;3641;49.082;8.200;2023-12-20T15:07:44;16.05;;;3.03;;
7199;SDS011;3641;49.082;8.200;2023-12-20T15:10:16;11.13;;;3.78;;